createdAt,value
2022-12-03T00:01:36.767Z,91.59
2022-12-03T00:04:03.089Z,91.59
2022-12-03T00:06:34.359Z,91.63
2022-12-03T00:09:00.863Z,91.77
2022-12-03T00:11:26.960Z,91.65
2022-12-03T00:13:53.056Z,91.61
2022-12-03T00:16:19.228Z,91.55
2022-12-03T00:18:45.369Z,91.83
2022-12-03T00:21:11.589Z,91.44
2022-12-03T00:23:42.039Z,91.47
2022-12-03T00:26:08.607Z,91.42
2022-12-03T00:28:34.710Z,91.67
2022-12-03T00:31:00.929Z,91.47
2022-12-03T00:33:27.076Z,91.56
2022-12-03T00:35:53.161Z,91.42
2022-12-03T00:38:19.264Z,91.42
2022-12-03T00:40:45.360Z,91.34
2022-12-03T00:43:11.463Z,91.36
2022-12-03T00:45:37.649Z,91.38
2022-12-03T00:48:03.746Z,91.28
2022-12-03T00:50:29.851Z,91.32
2022-12-03T00:52:56.010Z,91.67
2022-12-03T00:55:22.360Z,91.30
2022-12-03T00:57:48.463Z,91.65
2022-12-03T01:00:14.568Z,91.31
2022-12-03T01:02:40.655Z,91.41
2022-12-03T01:05:06.813Z,91.17
2022-12-03T01:07:33.057Z,91.15
2022-12-03T01:09:59.200Z,91.16
2022-12-03T01:12:25.294Z,91.38
2022-12-03T01:14:51.677Z,91.36
2022-12-03T01:17:17.987Z,91.22
2022-12-03T01:19:48.241Z,91.46
2022-12-03T01:22:14.752Z,91.13
2022-12-03T01:24:40.848Z,91.33
2022-12-03T01:27:06.931Z,91.29
2022-12-03T01:29:33.031Z,91.32
2022-12-03T01:31:59.119Z,91.04
2022-12-03T01:34:25.204Z,91.33
2022-12-03T01:36:51.317Z,91.24
2022-12-03T01:39:17.400Z,91.01
2022-12-03T01:41:43.510Z,91.21
2022-12-03T01:44:09.640Z,90.87
2022-12-03T01:46:35.770Z,91.15
2022-12-03T01:49:01.912Z,91.17
2022-12-03T01:51:28.500Z,90.90
2022-12-03T01:53:54.588Z,90.81
2022-12-03T01:56:20.704Z,90.89
2022-12-03T01:58:46.832Z,90.95
2022-12-03T02:01:12.937Z,90.81
2022-12-03T02:03:39.053Z,91.02
2022-12-03T02:06:05.201Z,90.86
2022-12-03T02:08:31.303Z,90.88
2022-12-03T02:10:57.400Z,90.95
2022-12-03T02:13:23.498Z,90.66
2022-12-03T02:15:49.657Z,90.80
2022-12-03T02:18:15.822Z,90.98
2022-12-03T02:20:41.943Z,90.88
2022-12-03T02:23:08.042Z,90.64
2022-12-03T02:25:34.166Z,90.81
2022-12-03T02:28:00.275Z,90.98
2022-12-03T02:30:26.365Z,90.69
2022-12-03T02:32:52.467Z,90.90
2022-12-03T02:35:18.593Z,90.75
2022-12-03T02:37:44.691Z,90.74
2022-12-03T02:40:10.776Z,90.57
2022-12-03T02:42:36.886Z,90.75
2022-12-03T02:45:05.375Z,90.86
2022-12-03T02:47:31.898Z,90.80
2022-12-03T02:49:58.000Z,90.74
2022-12-03T02:52:24.102Z,90.79
2022-12-03T02:54:50.243Z,90.50
2022-12-03T02:57:16.506Z,90.57
2022-12-03T02:59:42.612Z,90.55
2022-12-03T03:02:08.766Z,90.47
2022-12-03T03:04:34.931Z,90.45
2022-12-03T03:07:01.025Z,90.55
2022-12-03T03:09:27.124Z,90.57
2022-12-03T03:11:53.253Z,90.42
2022-12-03T03:14:19.348Z,90.43
2022-12-03T03:16:45.520Z,90.40
2022-12-03T03:19:11.674Z,90.62
2022-12-03T03:21:37.764Z,90.44
2022-12-03T03:24:03.859Z,90.40
2022-12-03T03:26:29.966Z,90.68
2022-12-03T03:28:56.076Z,90.64
2022-12-03T03:31:22.204Z,90.74
2022-12-03T03:33:48.351Z,90.66
2022-12-03T03:36:14.444Z,90.49
2022-12-03T03:38:40.552Z,90.53
2022-12-03T03:41:06.720Z,90.57
2022-12-03T03:43:32.842Z,90.75
2022-12-03T03:45:59.000Z,90.65
2022-12-03T03:48:25.156Z,90.79
2022-12-03T03:50:51.265Z,90.79
2022-12-03T03:53:17.357Z,90.68
2022-12-03T03:55:43.838Z,90.93
2022-12-03T03:58:09.939Z,90.78
2022-12-03T04:00:36.027Z,90.89
2022-12-03T04:03:02.151Z,90.86
2022-12-03T04:05:28.245Z,90.85
2022-12-03T04:07:54.427Z,90.82
2022-12-03T04:10:20.566Z,90.79
2022-12-03T04:12:46.657Z,90.78
2022-12-03T04:15:12.753Z,91.11
2022-12-03T04:17:38.876Z,90.97
2022-12-03T04:20:04.963Z,91.05
2022-12-03T04:22:31.061Z,91.22
2022-12-03T04:24:57.181Z,91.31
2022-12-03T04:27:23.288Z,91.23
2022-12-03T04:29:49.384Z,91.10
2022-12-03T04:32:15.501Z,91.16
2022-12-03T04:34:41.587Z,91.17
2022-12-03T04:37:07.696Z,91.09
2022-12-03T04:39:33.810Z,90.99
2022-12-03T04:41:59.900Z,91.17
2022-12-03T04:44:26.000Z,91.27
2022-12-03T04:46:52.127Z,91.34
2022-12-03T04:49:18.227Z,91.03
2022-12-03T04:51:44.337Z,91.07
2022-12-03T04:54:10.484Z,91.27
2022-12-03T04:56:36.584Z,91.02
2022-12-03T04:59:02.676Z,91.44
2022-12-03T05:01:29.451Z,91.43
2022-12-03T05:03:55.616Z,91.34
2022-12-03T05:06:21.746Z,91.36
2022-12-03T05:08:47.861Z,91.21
2022-12-03T05:11:13.945Z,91.14
2022-12-03T05:13:40.047Z,91.44
2022-12-03T05:16:06.164Z,91.39
2022-12-03T05:18:32.250Z,91.48
2022-12-03T05:20:58.342Z,91.23
2022-12-03T05:23:24.461Z,91.15
2022-12-03T05:25:50.550Z,91.42
2022-12-03T05:28:16.642Z,91.29
2022-12-03T05:30:42.781Z,91.45
2022-12-03T05:33:08.878Z,91.19
2022-12-03T05:35:34.978Z,91.17
2022-12-03T05:38:01.093Z,91.32
2022-12-03T05:40:27.181Z,91.41
2022-12-03T05:42:53.269Z,91.41
2022-12-03T05:45:19.378Z,91.55
2022-12-03T05:47:45.469Z,91.58
2022-12-03T05:50:11.566Z,91.56
2022-12-03T05:52:37.753Z,91.65
2022-12-03T05:55:03.848Z,91.43
2022-12-03T05:57:29.962Z,91.69
2022-12-03T05:59:56.078Z,91.70
2022-12-03T06:02:22.254Z,91.48
2022-12-03T06:04:48.423Z,91.46
2022-12-03T06:07:14.574Z,91.45
2022-12-03T06:09:40.701Z,91.42
2022-12-03T06:12:06.798Z,91.56
2022-12-03T06:14:32.908Z,91.58
2022-12-03T06:16:58.990Z,91.46
2022-12-03T06:19:25.075Z,91.69
2022-12-03T06:21:51.183Z,91.36
2022-12-03T06:24:17.260Z,91.67
2022-12-03T06:26:43.349Z,91.67
2022-12-03T06:29:09.464Z,91.69
2022-12-03T06:31:35.620Z,91.81
2022-12-03T06:34:01.725Z,91.78
2022-12-03T06:36:27.845Z,91.44
2022-12-03T06:38:53.947Z,91.57
2022-12-03T06:41:20.040Z,91.76
2022-12-03T06:43:46.159Z,91.70
2022-12-03T06:46:12.362Z,91.35
2022-12-03T06:48:38.530Z,91.33
2022-12-03T06:51:04.649Z,91.54
2022-12-03T06:53:30.760Z,91.55
2022-12-03T06:55:56.843Z,91.65
2022-12-03T06:58:22.951Z,91.45
2022-12-03T07:00:49.054Z,91.29
2022-12-03T07:03:15.211Z,91.32
2022-12-03T07:05:41.472Z,91.47
2022-12-03T07:08:07.655Z,91.46
2022-12-03T07:10:33.822Z,91.35
2022-12-03T07:12:59.932Z,91.64
2022-12-03T07:15:26.012Z,91.40
2022-12-03T07:17:52.108Z,91.54
2022-12-03T07:20:18.227Z,91.68
2022-12-03T07:22:44.321Z,91.40
2022-12-03T07:25:10.415Z,91.25
2022-12-03T07:27:36.546Z,91.51
2022-12-03T07:30:02.642Z,91.31
2022-12-03T07:32:28.731Z,91.45
2022-12-03T07:34:54.997Z,91.13
2022-12-03T07:37:23.251Z,91.35
2022-12-03T07:39:49.686Z,91.17
2022-12-03T07:42:15.796Z,91.03
2022-12-03T07:44:41.892Z,91.16
2022-12-03T07:47:08.070Z,90.96
2022-12-03T07:49:34.271Z,90.87
2022-12-03T07:52:00.365Z,91.11
2022-12-03T07:54:26.462Z,90.85
2022-12-03T07:56:56.582Z,91.26
2022-12-03T07:59:25.798Z,90.82
2022-12-03T08:01:52.009Z,90.75
2022-12-03T08:04:18.158Z,90.85
2022-12-03T08:06:44.266Z,90.75
2022-12-03T08:09:15.755Z,90.81
2022-12-03T08:11:42.824Z,91.05
2022-12-03T08:14:08.931Z,90.81
2022-12-03T08:16:35.058Z,90.77
2022-12-03T08:19:01.214Z,90.94
2022-12-03T08:21:27.318Z,90.82
2022-12-03T08:23:53.407Z,90.53
2022-12-03T08:26:19.518Z,90.60
2022-12-03T08:28:45.613Z,90.55
2022-12-03T08:31:11.769Z,90.33
2022-12-03T08:33:37.930Z,90.64
2022-12-03T08:36:04.028Z,90.30
2022-12-03T08:38:30.126Z,90.17
2022-12-03T08:40:56.227Z,90.11
2022-12-03T08:43:22.333Z,90.05
2022-12-03T08:45:48.449Z,90.17
2022-12-03T08:48:14.570Z,89.89
2022-12-03T08:50:40.647Z,90.02
2022-12-03T08:53:06.746Z,89.67
2022-12-03T08:55:32.848Z,89.85
2022-12-03T08:57:58.931Z,89.41
2022-12-03T09:00:25.060Z,89.39
2022-12-03T09:02:51.196Z,89.39
2022-12-03T09:05:17.279Z,89.47
2022-12-03T09:07:43.433Z,89.24
2022-12-03T09:10:09.627Z,89.37
2022-12-03T09:12:35.725Z,89.31
2022-12-03T09:15:01.869Z,89.22
2022-12-03T09:17:27.994Z,89.13
2022-12-03T09:19:54.147Z,88.82
2022-12-03T09:22:20.258Z,88.88
2022-12-03T09:24:46.364Z,88.77
2022-12-03T09:27:12.474Z,88.69
2022-12-03T09:29:38.564Z,88.45
2022-12-03T09:32:04.761Z,88.55
2022-12-03T09:34:30.953Z,88.42
2022-12-03T09:36:57.030Z,88.19
2022-12-03T09:39:23.146Z,88.29
2022-12-03T09:41:49.240Z,88.03
2022-12-03T09:44:17.893Z,88.01
2022-12-03T09:46:44.392Z,87.97
2022-12-03T09:49:15.481Z,88.09
2022-12-03T09:51:42.233Z,87.90
2022-12-03T09:54:08.551Z,88.00
2022-12-03T09:56:34.630Z,87.86
2022-12-03T09:59:00.720Z,87.88
2022-12-03T10:01:30.113Z,87.81
2022-12-03T10:03:56.543Z,87.69
2022-12-03T10:06:22.645Z,87.67
2022-12-03T10:08:49.227Z,87.51
2022-12-03T10:11:15.326Z,87.44
2022-12-03T10:13:41.429Z,87.49
2022-12-03T10:16:08.419Z,87.45
2022-12-03T10:18:38.224Z,87.19
2022-12-03T10:21:07.449Z,87.23
2022-12-03T10:23:33.550Z,87.15
2022-12-03T10:25:59.655Z,87.07
2022-12-03T10:28:25.784Z,87.11
2022-12-03T10:30:51.947Z,87.00
2022-12-03T10:33:19.260Z,86.99
2022-12-03T10:35:45.517Z,87.10
2022-12-03T10:38:11.638Z,86.92
2022-12-03T10:40:37.740Z,86.63
2022-12-03T10:43:03.853Z,86.63
2022-12-03T10:45:29.973Z,86.52
2022-12-03T10:47:56.204Z,86.53
2022-12-03T10:50:22.346Z,86.42
2022-12-03T10:52:48.483Z,86.51
2022-12-03T10:55:14.576Z,86.30
2022-12-03T10:57:45.241Z,86.23
2022-12-03T11:00:12.136Z,86.35
2022-12-03T11:02:38.288Z,86.21
2022-12-03T11:05:04.420Z,86.33
2022-12-03T11:07:30.579Z,86.17
2022-12-03T11:09:56.687Z,86.07
2022-12-03T11:12:22.833Z,85.99
2022-12-03T11:14:48.952Z,85.98
2022-12-03T11:17:15.050Z,85.87
2022-12-03T11:19:41.143Z,85.90
2022-12-03T11:22:07.810Z,85.86
2022-12-03T11:24:33.906Z,85.82
2022-12-03T11:27:00.117Z,85.58
2022-12-03T11:29:26.273Z,85.71
2022-12-03T11:31:52.358Z,85.74
2022-12-03T11:34:18.454Z,85.66
2022-12-03T11:37:01.225Z,85.42
2022-12-03T11:39:28.161Z,85.49
2022-12-03T11:41:54.292Z,85.57
2022-12-03T11:44:20.378Z,85.39
2022-12-03T11:46:46.542Z,85.29
2022-12-03T11:49:12.689Z,85.52
2022-12-03T11:51:38.787Z,85.34
2022-12-03T11:54:04.918Z,85.25
2022-12-03T11:56:31.080Z,85.29
2022-12-03T11:58:57.183Z,85.34
2022-12-03T12:01:23.294Z,85.48
2022-12-03T12:03:49.603Z,85.19
2022-12-03T12:06:15.878Z,85.43
2022-12-03T12:08:41.977Z,85.26
2022-12-03T12:11:08.157Z,85.23
2022-12-03T12:13:34.241Z,85.39
2022-12-03T12:16:00.411Z,85.19
2022-12-03T12:18:26.559Z,85.36
2022-12-03T12:20:52.649Z,85.31
2022-12-03T12:23:18.760Z,85.17
2022-12-03T12:25:47.301Z,85.15
2022-12-03T12:28:17.026Z,85.35
2022-12-03T12:30:43.107Z,85.24
2022-12-03T12:33:09.215Z,85.45
2022-12-03T12:35:35.291Z,85.31
2022-12-03T12:38:01.371Z,85.09
2022-12-03T12:40:27.499Z,85.27
2022-12-03T12:42:53.612Z,85.36
2022-12-03T12:45:19.792Z,85.20
2022-12-03T12:47:46.017Z,85.03
2022-12-03T12:50:12.238Z,85.18
2022-12-03T12:52:38.398Z,85.13
2022-12-03T12:55:05.302Z,84.99
2022-12-03T12:57:31.559Z,85.22
2022-12-03T12:59:57.648Z,85.07
2022-12-03T13:02:23.858Z,85.20
2022-12-03T13:04:49.988Z,84.96
2022-12-03T13:07:16.116Z,84.96
2022-12-03T13:09:42.229Z,85.09
2022-12-03T13:12:08.325Z,85.07
2022-12-03T13:14:34.417Z,85.21
2022-12-03T13:17:00.584Z,85.30
2022-12-03T13:19:26.700Z,85.07
2022-12-03T13:21:52.792Z,85.15
2022-12-03T13:24:19.391Z,85.18
2022-12-03T13:26:45.489Z,85.14
2022-12-03T13:29:11.579Z,85.09
2022-12-03T13:31:43.176Z,85.21
2022-12-03T13:34:10.091Z,85.13
2022-12-03T13:36:36.177Z,85.22
2022-12-03T13:39:02.304Z,85.43
2022-12-03T13:41:28.406Z,85.49
2022-12-03T13:43:54.537Z,85.49
2022-12-03T13:46:20.740Z,85.25
2022-12-03T13:48:46.922Z,85.24
2022-12-03T13:51:13.007Z,85.30
2022-12-03T13:53:39.117Z,85.37
2022-12-03T13:56:05.226Z,85.59
2022-12-03T13:58:31.323Z,85.57
2022-12-03T14:00:57.500Z,85.42
2022-12-03T14:03:23.625Z,85.42
2022-12-03T14:05:49.723Z,85.70
2022-12-03T14:08:15.874Z,85.49
2022-12-03T14:10:41.994Z,85.62
2022-12-03T14:13:08.097Z,85.57
2022-12-03T14:15:34.572Z,85.73
2022-12-03T14:18:00.679Z,85.74
2022-12-03T14:20:26.781Z,85.62
2022-12-03T14:22:58.847Z,85.60
2022-12-03T14:25:25.493Z,85.83
2022-12-03T14:27:51.587Z,85.83
2022-12-03T14:30:18.176Z,85.82
2022-12-03T14:32:44.267Z,85.77
2022-12-03T14:35:10.486Z,85.69
2022-12-03T14:37:36.599Z,85.96
2022-12-03T14:40:02.709Z,86.12
2022-12-03T14:42:28.786Z,86.18
2022-12-03T14:44:54.901Z,85.97
2022-12-03T14:47:21.004Z,86.14
2022-12-03T14:49:47.103Z,86.04
2022-12-03T14:52:13.239Z,86.11
2022-12-03T14:54:39.339Z,86.07
2022-12-03T14:57:05.443Z,86.00
2022-12-03T14:59:31.576Z,86.06
2022-12-03T15:01:57.793Z,86.18
2022-12-03T15:04:24.030Z,86.13
2022-12-03T15:06:50.174Z,86.31
2022-12-03T15:09:16.272Z,86.41
2022-12-03T15:11:46.121Z,86.30
2022-12-03T15:14:12.812Z,86.25
2022-12-03T15:16:38.959Z,86.43
2022-12-03T15:19:05.071Z,86.69
2022-12-03T15:21:31.704Z,86.41
2022-12-03T15:23:57.904Z,86.60
2022-12-03T15:26:24.004Z,86.49
2022-12-03T15:28:50.109Z,86.58
2022-12-03T15:31:16.284Z,86.66
2022-12-03T15:33:42.464Z,86.62
2022-12-03T15:36:08.581Z,86.92
2022-12-03T15:38:34.700Z,87.01
2022-12-03T15:41:00.784Z,86.90
2022-12-03T15:43:26.926Z,86.64
2022-12-03T15:45:53.085Z,86.70
2022-12-03T15:48:19.216Z,86.73
2022-12-03T15:50:45.320Z,86.74
2022-12-03T15:53:11.416Z,86.77
2022-12-03T15:55:37.499Z,86.93
2022-12-03T15:58:03.615Z,86.80
2022-12-03T16:00:29.722Z,87.14
2022-12-03T16:02:55.841Z,86.91
2022-12-03T16:05:21.947Z,86.94
2022-12-03T16:07:48.106Z,87.09
2022-12-03T16:10:14.266Z,87.33
2022-12-03T16:12:40.375Z,86.99
2022-12-03T16:15:06.475Z,87.21
2022-12-03T16:17:32.580Z,87.08
2022-12-03T16:19:58.705Z,87.18
2022-12-03T16:22:24.807Z,87.19
2022-12-03T16:24:50.902Z,87.38
2022-12-03T16:27:19.572Z,87.36
2022-12-03T16:29:47.732Z,87.19
2022-12-03T16:32:13.834Z,87.35
2022-12-03T16:34:40.019Z,87.14
2022-12-03T16:37:06.111Z,87.30
2022-12-03T16:39:32.382Z,87.49
2022-12-03T16:41:58.537Z,87.14
2022-12-03T16:44:24.635Z,87.16
2022-12-03T16:46:50.850Z,87.52
2022-12-03T16:49:17.004Z,87.21
2022-12-03T16:51:43.094Z,87.38
2022-12-03T16:54:09.181Z,87.41
2022-12-03T16:56:35.290Z,87.27
2022-12-03T16:59:01.384Z,87.43
2022-12-03T17:01:27.560Z,87.62
2022-12-03T17:03:53.717Z,87.61
2022-12-03T17:06:19.816Z,87.64
2022-12-03T17:08:49.461Z,87.27
2022-12-03T17:11:16.105Z,87.40
2022-12-03T17:13:42.205Z,87.75
2022-12-03T17:16:08.350Z,87.64
2022-12-03T17:18:34.532Z,87.75
2022-12-03T17:21:00.630Z,87.41
2022-12-03T17:23:26.712Z,87.53
2022-12-03T17:25:52.819Z,87.93
2022-12-03T17:28:18.933Z,87.63
2022-12-03T17:30:45.055Z,87.61
2022-12-03T17:33:11.209Z,87.61
2022-12-03T17:35:37.327Z,88.01
2022-12-03T17:38:03.419Z,87.92
2022-12-03T17:40:29.590Z,87.80
2022-12-03T17:42:55.683Z,87.74
2022-12-03T17:45:21.779Z,87.89
2022-12-03T17:47:47.881Z,87.86
2022-12-03T17:50:13.963Z,88.01
2022-12-03T17:52:40.059Z,87.83
2022-12-03T17:55:12.788Z,87.83
2022-12-03T17:57:40.520Z,88.10
2022-12-03T18:00:06.623Z,88.03
2022-12-03T18:02:32.723Z,87.83
2022-12-03T18:04:58.811Z,87.92
2022-12-03T18:07:24.897Z,88.08
2022-12-03T18:09:51.023Z,88.10
2022-12-03T18:12:17.195Z,88.28
2022-12-03T18:14:43.288Z,88.14
2022-12-03T18:17:09.429Z,87.94
2022-12-03T18:19:35.533Z,88.01
2022-12-03T18:22:01.639Z,88.06
2022-12-03T18:24:27.760Z,88.32
2022-12-03T18:26:53.857Z,88.24
2022-12-03T18:29:19.940Z,87.93
2022-12-03T18:31:46.127Z,88.28
2022-12-03T18:34:12.332Z,88.10
2022-12-03T18:36:38.427Z,88.09
2022-12-03T18:39:04.547Z,87.95
2022-12-03T18:41:30.649Z,88.23
2022-12-03T18:43:56.735Z,88.35
2022-12-03T18:46:51.659Z,88.41
2022-12-03T18:49:08.903Z,88.33
2022-12-03T18:51:35.029Z,88.30
2022-12-03T18:54:01.113Z,88.43
2022-12-03T18:56:27.228Z,88.05
2022-12-03T18:58:53.343Z,88.31
2022-12-03T19:01:19.499Z,88.12
2022-12-03T19:03:45.631Z,88.22
2022-12-03T19:06:16.886Z,88.17
2022-12-03T19:08:44.603Z,88.12
2022-12-03T19:11:10.698Z,88.45
2022-12-03T19:13:36.800Z,88.48
2022-12-03T19:16:02.945Z,88.08
2022-12-03T19:18:29.115Z,88.49
2022-12-03T19:20:55.235Z,88.58
2022-12-03T19:23:21.324Z,88.51
2022-12-03T19:25:47.407Z,88.14
2022-12-03T19:28:13.527Z,88.48
2022-12-03T19:30:39.623Z,88.32
2022-12-03T19:33:05.721Z,88.59
2022-12-03T19:35:31.840Z,88.37
2022-12-03T19:37:57.923Z,88.63
2022-12-03T19:40:24.015Z,88.25
2022-12-03T19:42:50.123Z,88.54
2022-12-03T19:45:16.207Z,88.48
2022-12-03T19:47:42.296Z,88.58
2022-12-03T19:50:08.451Z,88.27
2022-12-03T19:52:34.533Z,88.46
2022-12-03T19:55:00.639Z,88.63
2022-12-03T19:57:26.762Z,88.50
2022-12-03T19:59:53.251Z,88.71
2022-12-03T20:02:19.705Z,88.40
2022-12-03T20:04:45.919Z,88.55
2022-12-03T20:07:12.000Z,88.63
2022-12-03T20:09:38.085Z,88.74
2022-12-03T20:12:04.195Z,88.62
2022-12-03T20:14:30.275Z,88.33
2022-12-03T20:16:56.425Z,88.41
2022-12-03T20:19:22.632Z,88.60
2022-12-03T20:21:48.736Z,88.84
2022-12-03T20:24:14.825Z,88.86
2022-12-03T20:26:40.948Z,88.52
2022-12-03T20:29:07.045Z,88.87
2022-12-03T20:31:33.201Z,88.78
2022-12-03T20:33:59.343Z,88.87
2022-12-03T20:36:27.026Z,88.78
2022-12-03T20:38:53.124Z,88.90
2022-12-03T20:41:19.230Z,88.94
2022-12-03T20:43:45.321Z,88.87
2022-12-03T20:46:11.486Z,88.73
2022-12-03T20:48:37.602Z,88.95
2022-12-03T20:51:03.691Z,88.90
2022-12-03T20:53:29.788Z,88.70
2022-12-03T20:55:55.900Z,88.90
2022-12-03T20:58:21.992Z,88.94
2022-12-03T21:00:48.171Z,88.88
2022-12-03T21:03:14.301Z,88.96
2022-12-03T21:05:40.392Z,88.82
2022-12-03T21:08:06.574Z,88.77
2022-12-03T21:10:32.697Z,88.63
2022-12-03T21:12:58.805Z,89.01
2022-12-03T21:15:24.915Z,88.88
2022-12-03T21:17:51.138Z,88.91
2022-12-03T21:20:20.986Z,88.68
2022-12-03T21:22:47.520Z,88.65
2022-12-03T21:25:13.639Z,88.81
2022-12-03T21:27:39.724Z,89.00
2022-12-03T21:30:05.820Z,88.62
2022-12-03T21:32:31.936Z,88.61
2022-12-03T21:34:58.028Z,89.13
2022-12-03T21:37:24.119Z,88.93
2022-12-03T21:39:50.627Z,88.99
2022-12-03T21:42:34.037Z,89.14
2022-12-03T21:45:01.318Z,89.13
2022-12-03T21:47:30.938Z,89.04
2022-12-03T21:49:59.752Z,88.97
2022-12-03T21:52:25.860Z,89.16
2022-12-03T21:54:51.952Z,88.81
2022-12-03T21:57:18.048Z,89.17
2022-12-03T21:59:44.199Z,88.75
2022-12-03T22:02:10.502Z,89.21
2022-12-03T22:04:36.737Z,89.18
2022-12-03T22:07:02.841Z,88.78
2022-12-03T22:09:28.950Z,89.17
2022-12-03T22:11:55.056Z,89.04
2022-12-03T22:14:21.181Z,88.88
2022-12-03T22:16:47.260Z,88.88
2022-12-03T22:19:13.344Z,88.99
2022-12-03T22:21:39.460Z,89.21
2022-12-03T22:24:05.563Z,89.27
2022-12-03T22:26:31.647Z,89.18
2022-12-03T22:28:57.756Z,88.87
2022-12-03T22:31:23.908Z,89.26
2022-12-03T22:33:50.038Z,89.10
2022-12-03T22:36:20.421Z,88.97
2022-12-03T22:38:47.333Z,89.15
2022-12-03T22:41:13.449Z,89.27
2022-12-03T22:43:39.570Z,88.95
2022-12-03T22:46:05.778Z,88.93
2022-12-03T22:48:31.897Z,89.05
2022-12-03T22:50:58.012Z,89.17
2022-12-03T22:53:24.101Z,88.95
2022-12-03T22:55:50.205Z,88.96
2022-12-03T22:58:16.323Z,89.33
2022-12-03T23:00:42.411Z,89.17
2022-12-03T23:03:08.600Z,89.28
2022-12-03T23:05:34.775Z,89.25
2022-12-03T23:08:00.913Z,89.39
2022-12-03T23:10:31.005Z,89.41
2022-12-03T23:13:00.021Z,89.07
2022-12-03T23:15:26.115Z,89.35
2022-12-03T23:17:52.228Z,89.32
2022-12-03T23:20:18.329Z,89.31
2022-12-03T23:22:44.416Z,89.30
2022-12-03T23:25:10.514Z,89.47
2022-12-03T23:27:36.614Z,89.42
2022-12-03T23:30:02.706Z,89.16
2022-12-03T23:32:28.797Z,89.26
2022-12-03T23:34:54.903Z,89.29
2022-12-03T23:37:20.998Z,89.20
2022-12-03T23:39:47.088Z,89.03
2022-12-03T23:42:13.211Z,89.45
2022-12-03T23:44:39.363Z,89.42
2022-12-03T23:47:05.486Z,89.37
2022-12-03T23:49:31.624Z,89.46
2022-12-03T23:51:57.741Z,89.04
2022-12-03T23:54:23.841Z,89.22
2022-12-03T23:56:49.960Z,89.34
2022-12-03T23:59:16.053Z,89.31
